createdAt,value
2019-04-21T00:00:31.858Z,38.10
2019-04-21T00:03:07.349Z,38.90
2019-04-21T00:05:54.596Z,38.80
2019-04-21T00:08:27.813Z,38.50
2019-04-21T00:10:49.996Z,38.10
2019-04-21T00:13:14.780Z,37.00
2019-04-21T00:15:37.860Z,37.20
2019-04-21T00:18:12.282Z,36.90
2019-04-21T00:20:46.733Z,36.90
2019-04-21T00:23:31.281Z,36.50
2019-04-21T00:25:53.714Z,35.80
2019-04-21T00:28:39.305Z,35.90
2019-04-21T00:30:56.972Z,36.40
2019-04-21T00:33:19.182Z,36.00
2019-04-21T00:35:46.465Z,35.70
2019-04-21T00:38:34.584Z,35.70
2019-04-21T00:41:00.027Z,36.00
2019-04-21T00:43:25.147Z,35.90
2019-04-21T00:45:48.087Z,35.40
2019-04-21T00:48:32.953Z,35.60
2019-04-21T00:51:16.401Z,35.20
2019-04-21T00:53:48.402Z,35.00
2019-04-21T00:56:08.677Z,36.60
2019-04-21T00:58:53.431Z,35.80
2019-04-21T01:01:08.139Z,35.70
2019-04-21T01:03:37.238Z,36.20
2019-04-21T01:06:03.662Z,36.60
2019-04-21T01:08:36.970Z,36.20
2019-04-21T01:11:08.497Z,36.70
2019-04-21T01:13:53.355Z,37.40
2019-04-21T01:16:07.244Z,38.20
2019-04-21T01:18:32.407Z,38.00
2019-04-21T01:20:43.172Z,37.70
2019-04-21T01:23:12.571Z,39.00
2019-04-21T01:25:51.564Z,39.20
2019-04-21T01:28:29.346Z,39.80
2019-04-21T01:30:57.893Z,40.60
2019-04-21T01:33:33.470Z,40.40
2019-04-21T01:35:58.385Z,40.90
2019-04-21T01:38:35.729Z,40.80
2019-04-21T01:41:21.859Z,39.60
2019-04-21T01:43:29.321Z,39.10
2019-04-21T01:45:58.987Z,39.80
2019-04-21T01:48:27.399Z,39.90
2019-04-21T01:50:55.772Z,39.90
2019-04-21T01:53:45.462Z,39.20
2019-04-21T01:56:34.261Z,39.80
2019-04-21T01:58:54.013Z,40.10
2019-04-21T02:01:37.208Z,39.80
2019-04-21T02:04:00.056Z,40.40
2019-04-21T02:06:33.463Z,41.30
2019-04-21T02:09:04.446Z,41.30
2019-04-21T02:11:37.975Z,41.30
2019-04-21T02:14:29.653Z,41.00
2019-04-21T02:16:36.058Z,41.90
2019-04-21T02:18:58.133Z,41.70
2019-04-21T02:21:27.645Z,41.10
2019-04-21T02:24:31.667Z,40.50
2019-04-21T02:26:52.937Z,40.40
2019-04-21T02:29:29.098Z,40.50
2019-04-21T02:32:10.675Z,40.70
2019-04-21T02:34:52.729Z,40.20
2019-04-21T02:37:17.615Z,40.30
2019-04-21T02:42:02.015Z,39.80
2019-04-21T02:44:37.643Z,40.30
2019-04-21T02:47:05.612Z,40.30
2019-04-21T02:49:56.096Z,39.80
2019-04-21T02:52:11.511Z,39.30
2019-04-21T03:00:00.070Z,39.70
2019-04-21T03:05:28.333Z,39.20
2019-04-21T03:07:55.466Z,38.90
2019-04-21T03:10:28.275Z,39.70
2019-04-21T03:12:53.071Z,40.30
2019-04-21T03:17:59.513Z,40.40
2019-04-21T03:20:23.813Z,41.00
2019-04-21T03:23:00.134Z,41.50
2019-04-21T03:25:33.507Z,41.00
2019-04-21T03:30:45.791Z,42.70
2019-04-21T03:33:24.582Z,41.80
2019-04-21T03:35:58.435Z,41.60
2019-04-21T03:38:00.263Z,42.40
2019-04-21T03:40:22.195Z,42.30
2019-04-21T03:43:01.089Z,42.80
2019-04-21T03:45:32.623Z,42.30
2019-04-21T03:47:53.240Z,42.70
2019-04-21T03:50:27.847Z,43.50
2019-04-21T03:53:16.781Z,44.00
2019-04-21T03:55:48.854Z,43.60
2019-04-21T04:00:49.849Z,42.50
2019-04-21T04:03:35.264Z,42.10
2019-04-21T04:09:16.225Z,41.90
2019-04-21T04:14:09.761Z,44.00
2019-04-21T04:16:38.025Z,42.90
2019-04-21T04:18:57.736Z,43.40
2019-04-21T04:21:42.023Z,43.90
2019-04-21T04:24:07.460Z,42.50
2019-04-21T04:26:33.432Z,42.30
2019-04-21T04:29:03.908Z,41.80
2019-04-21T04:39:42.855Z,41.30
2019-04-21T04:42:39.022Z,42.30
2019-04-21T04:45:17.651Z,43.00
2019-04-21T04:57:57.780Z,44.10
2019-04-21T05:02:33.758Z,43.70
2019-04-21T05:07:34.065Z,43.20
2019-04-21T05:20:11.770Z,43.90
2019-04-21T05:22:35.428Z,45.50
2019-04-21T05:24:58.430Z,45.40
2019-04-21T05:27:39.237Z,44.90
2019-04-21T05:30:23.221Z,45.10
2019-04-21T05:33:18.770Z,44.60
2019-04-21T05:36:05.744Z,43.90
2019-04-21T05:38:50.243Z,44.10
2019-04-21T05:41:14.949Z,44.80
2019-04-21T05:43:54.446Z,46.20
2019-04-21T05:46:19.436Z,46.30
2019-04-21T05:48:52.577Z,46.70
2019-04-21T05:51:25.302Z,46.00
2019-04-21T05:54:03.546Z,47.00
2019-04-21T05:56:32.362Z,47.50
2019-04-21T05:58:57.999Z,47.50
2019-04-21T06:03:57.111Z,47.50
2019-04-21T06:06:35.497Z,47.60
2019-04-21T06:08:52.519Z,49.80
2019-04-21T06:11:25.561Z,49.90
2019-04-21T06:16:30.334Z,51.90
2019-04-21T06:21:42.783Z,52.50
2019-04-21T06:24:25.161Z,52.20
2019-04-21T06:29:50.270Z,53.10
2019-04-21T06:32:47.172Z,55.80
2019-04-21T06:35:34.402Z,55.50
2019-04-21T06:38:10.351Z,56.00
2019-04-21T06:40:36.259Z,55.40
2019-04-21T06:43:15.116Z,57.50
2019-04-21T06:45:37.321Z,57.20
2019-04-21T06:48:06.881Z,56.90
2019-04-21T06:50:31.855Z,56.00
2019-04-21T06:53:20.749Z,55.20
2019-04-21T06:55:46.803Z,55.90
2019-04-21T06:58:11.671Z,54.60
2019-04-21T07:00:56.182Z,55.10
2019-04-21T07:03:34.739Z,55.80
2019-04-21T07:06:06.494Z,56.70
2019-04-21T07:10:56.796Z,58.60
2019-04-21T07:13:25.377Z,58.20
2019-04-21T07:18:41.631Z,59.70
2019-04-21T07:21:27.824Z,60.70
2019-04-21T07:24:14.126Z,61.50
2019-04-21T07:26:55.608Z,60.50
2019-04-21T07:29:50.608Z,60.80
2019-04-21T07:32:12.440Z,59.90
2019-04-21T07:35:00.573Z,60.80
2019-04-21T07:37:35.283Z,60.60
2019-04-21T07:40:00.146Z,60.70
2019-04-21T07:42:32.493Z,60.50
2019-04-21T07:45:15.077Z,59.60
2019-04-21T07:47:57.948Z,60.70
2019-04-21T07:51:00.834Z,60.80
2019-04-21T07:53:52.161Z,62.70
2019-04-21T07:56:15.903Z,64.20
2019-04-21T07:59:09.024Z,64.30
2019-04-21T08:01:48.395Z,63.20
2019-04-21T08:04:43.940Z,59.10
2019-04-21T08:07:14.912Z,59.00
2019-04-21T08:09:51.116Z,57.70
2019-04-21T08:12:36.334Z,59.40
2019-04-21T08:18:17.799Z,51.60
2019-04-21T08:20:34.943Z,50.70
2019-04-21T08:23:13.001Z,50.30
2019-04-21T08:25:45.934Z,48.40
2019-04-21T08:28:05.407Z,48.50
2019-04-21T08:30:36.598Z,49.50
2019-04-21T08:33:19.059Z,50.80
2019-04-21T08:36:04.728Z,51.70
2019-04-21T08:38:08.520Z,51.30
2019-04-21T08:40:44.004Z,52.40
2019-04-21T08:43:08.855Z,54.20
2019-04-21T08:45:45.282Z,52.30
2019-04-21T08:48:10.224Z,51.90
2019-04-21T08:50:37.641Z,52.50
2019-04-21T08:53:07.980Z,51.00
2019-04-21T08:55:48.985Z,50.70
2019-04-21T08:58:43.346Z,50.70
2019-04-21T09:01:36.891Z,50.30
2019-04-21T09:04:07.651Z,50.50
2019-04-21T09:09:08.142Z,47.80
2019-04-21T09:11:42.330Z,49.10
2019-04-21T09:14:13.408Z,48.30
2019-04-21T09:16:41.144Z,46.30
2019-04-21T09:19:11.778Z,44.30
2019-04-21T09:21:43.747Z,45.40
2019-04-21T09:24:13.052Z,48.10
2019-04-21T09:26:43.179Z,47.90
2019-04-21T09:29:05.904Z,48.40
2019-04-21T09:31:29.003Z,49.80
2019-04-21T09:34:08.388Z,49.10
2019-04-21T09:36:45.950Z,47.00
2019-04-21T09:39:16.562Z,45.20
2019-04-21T09:41:42.758Z,46.80
2019-04-21T09:44:17.210Z,48.10
2019-04-21T09:46:47.666Z,47.40
2019-04-21T09:49:13.961Z,46.40
2019-04-21T09:51:41.685Z,44.70
2019-04-21T09:54:14.918Z,44.30
2019-04-21T09:56:47.312Z,42.60
2019-04-21T09:59:19.294Z,43.10
2019-04-21T10:01:54.998Z,42.70
2019-04-21T10:04:09.878Z,43.40
2019-04-21T10:06:37.888Z,43.70
2019-04-21T10:09:10.257Z,42.00
2019-04-21T10:11:37.639Z,40.80
2019-04-21T10:14:07.328Z,42.40
2019-04-21T10:16:58.095Z,40.60
2019-04-21T10:19:25.512Z,39.30
2019-04-21T10:21:54.275Z,38.90
2019-04-21T10:24:22.372Z,36.20
2019-04-21T10:26:51.370Z,39.00
2019-04-21T10:29:25.439Z,39.00
2019-04-21T10:31:50.425Z,39.60
2019-04-21T10:34:19.137Z,36.70
2019-04-21T10:36:47.291Z,38.90
2019-04-21T10:39:15.733Z,36.70
2019-04-21T10:41:43.780Z,37.40
2019-04-21T10:44:11.687Z,36.20
2019-04-21T10:46:40.606Z,35.10
2019-04-21T10:49:08.821Z,34.30
2019-04-21T10:51:37.018Z,37.80
2019-04-21T10:54:06.253Z,37.00
2019-04-21T10:56:38.809Z,37.70
2019-04-21T10:59:04.541Z,37.30
2019-04-21T11:01:32.680Z,35.70
2019-04-21T11:04:25.348Z,36.90
2019-04-21T11:06:50.650Z,36.20
2019-04-21T11:09:19.937Z,36.40
2019-04-21T11:11:50.015Z,36.30
2019-04-21T11:14:18.675Z,35.30
2019-04-21T11:16:48.056Z,34.70
2019-04-21T11:19:17.849Z,37.00
2019-04-21T11:21:47.065Z,39.10
2019-04-21T11:24:16.244Z,36.80
2019-04-21T11:26:45.492Z,36.80
2019-04-21T11:29:14.869Z,35.40
2019-04-21T11:31:43.207Z,33.20
2019-04-21T11:34:11.349Z,35.00
2019-04-21T11:36:40.483Z,34.00
2019-04-21T11:39:45.771Z,33.40
2019-04-21T11:42:17.561Z,33.10
2019-04-21T11:44:46.884Z,32.70
2019-04-21T11:47:28.007Z,33.70
2019-04-21T11:49:57.063Z,33.10
2019-04-21T11:52:25.262Z,34.90
2019-04-21T11:54:55.064Z,36.60
2019-04-21T11:57:28.094Z,35.30
2019-04-21T11:59:55.518Z,31.90
2019-04-21T12:02:23.587Z,34.80
2019-04-21T12:04:53.787Z,35.60
2019-04-21T12:07:22.880Z,34.60
2019-04-21T12:09:51.311Z,33.60
2019-04-21T12:12:19.422Z,33.20
2019-04-21T12:15:16.713Z,32.50
2019-04-21T12:17:44.219Z,33.50
2019-04-21T12:20:12.722Z,33.90
2019-04-21T12:22:41.196Z,33.00
2019-04-21T12:25:11.505Z,35.10
2019-04-21T12:27:40.064Z,34.90
2019-04-21T12:30:11.424Z,34.10
2019-04-21T12:33:04.385Z,33.10
2019-04-21T12:35:33.548Z,31.90
2019-04-21T12:38:02.653Z,35.40
2019-04-21T12:40:32.503Z,33.80
2019-04-21T12:43:00.939Z,32.40
2019-04-21T12:45:29.429Z,34.20
2019-04-21T12:47:57.926Z,32.30
2019-04-21T12:50:25.987Z,31.20
2019-04-21T12:52:55.735Z,33.20
2019-04-21T12:55:30.730Z,33.00
2019-04-21T12:57:55.172Z,34.30
2019-04-21T13:00:24.805Z,35.60
2019-04-21T13:02:54.003Z,30.70
2019-04-21T13:05:22.056Z,31.10
2019-04-21T13:07:51.218Z,32.50
2019-04-21T13:10:20.184Z,29.90
2019-04-21T13:12:48.547Z,30.50
2019-04-21T13:15:49.890Z,29.10
2019-04-21T13:18:18.383Z,29.50
2019-04-21T13:20:46.533Z,29.30
2019-04-21T13:23:14.561Z,29.30
2019-04-21T13:25:43.655Z,29.90
2019-04-21T13:28:12.536Z,28.80
2019-04-21T13:30:41.969Z,27.60
2019-04-21T13:33:11.194Z,28.10
2019-04-21T13:35:39.387Z,29.20
2019-04-21T13:38:18.691Z,29.00
2019-04-21T13:41:15.056Z,27.20
2019-04-21T13:43:30.839Z,26.90
2019-04-21T13:45:59.594Z,26.10
2019-04-21T13:48:28.615Z,27.20
2019-04-21T13:50:57.318Z,27.90
2019-04-21T13:53:25.331Z,27.80
2019-04-21T13:55:53.330Z,27.40
2019-04-21T13:58:22.116Z,27.60
2019-04-21T14:00:50.622Z,27.70
2019-04-21T14:03:21.766Z,28.60
2019-04-21T14:05:50.618Z,26.80
2019-04-21T14:08:18.926Z,26.70
2019-04-21T14:10:47.349Z,25.70
2019-04-21T14:13:16.464Z,26.70
2019-04-21T14:16:32.040Z,28.50
2019-04-21T14:19:01.478Z,27.10
2019-04-21T14:21:29.639Z,27.10
2019-04-21T14:23:59.399Z,26.40
2019-04-21T14:26:27.498Z,27.30
2019-04-21T14:28:56.729Z,27.20
2019-04-21T14:31:26.255Z,27.40
2019-04-21T14:33:54.410Z,27.90
2019-04-21T14:36:23.009Z,27.60
2019-04-21T14:38:52.272Z,27.70
2019-04-21T14:41:20.345Z,27.60
2019-04-21T14:43:48.447Z,26.70
2019-04-21T14:46:35.259Z,28.60
2019-04-21T14:49:35.250Z,28.00
2019-04-21T14:52:10.723Z,28.60
2019-04-21T14:55:04.841Z,28.50
2019-04-21T14:57:33.509Z,29.00
2019-04-21T15:00:02.934Z,28.70
2019-04-21T15:02:31.884Z,28.40
2019-04-21T15:04:59.986Z,28.80
2019-04-21T15:07:27.872Z,29.20
2019-04-21T15:10:04.806Z,29.00
2019-04-21T15:12:25.943Z,29.90
2019-04-21T15:15:20.164Z,29.90
2019-04-21T15:17:47.309Z,30.00
2019-04-21T15:20:17.605Z,29.80
2019-04-21T15:22:46.255Z,29.20
2019-04-21T15:25:14.421Z,29.30
2019-04-21T15:27:43.100Z,30.00
2019-04-21T15:30:11.385Z,31.00
2019-04-21T15:32:44.637Z,30.40
2019-04-21T15:35:26.926Z,31.20
2019-04-21T15:37:55.898Z,30.80
2019-04-21T15:40:46.595Z,30.60
2019-04-21T15:43:33.386Z,29.30
2019-04-21T15:46:15.124Z,30.10
2019-04-21T15:48:58.993Z,32.20
2019-04-21T15:51:44.379Z,32.80
2019-04-21T15:54:26.918Z,32.60
2019-04-21T15:57:15.640Z,32.60
2019-04-21T16:00:14.003Z,32.40
2019-04-21T16:02:52.835Z,32.30
2019-04-21T16:05:22.430Z,32.50
2019-04-21T16:08:03.490Z,33.00
2019-04-21T16:10:57.112Z,33.20
2019-04-21T16:13:55.249Z,33.50
2019-04-21T16:16:57.330Z,32.30
2019-04-21T16:20:15.516Z,32.60
2019-04-21T16:23:10.797Z,33.90
2019-04-21T16:25:59.706Z,34.90
2019-04-21T16:28:41.683Z,34.60
2019-04-21T16:31:20.427Z,35.20
2019-04-21T16:33:49.189Z,35.70
2019-04-21T16:36:18.464Z,35.20
2019-04-21T16:38:47.328Z,35.00
2019-04-21T16:41:16.165Z,35.70
2019-04-21T16:43:45.037Z,36.00
2019-04-21T16:46:13.663Z,36.10
2019-04-21T16:48:42.026Z,35.70
2019-04-21T16:51:10.084Z,36.10
2019-04-21T16:53:57.792Z,36.30
2019-04-21T16:56:33.164Z,36.80
2019-04-21T16:59:06.523Z,36.40
2019-04-21T17:01:34.656Z,36.40
2019-04-21T17:04:02.684Z,36.70
2019-04-21T17:06:31.162Z,36.20
2019-04-21T17:09:00.809Z,36.50
2019-04-21T17:11:33.449Z,36.10
2019-04-21T17:14:00.531Z,35.70
2019-04-21T17:17:15.652Z,35.80
2019-04-21T17:19:27.115Z,35.80
2019-04-21T17:21:49.773Z,35.30
2019-04-21T17:24:17.965Z,35.90
2019-04-21T17:26:46.441Z,36.10
2019-04-21T17:29:16.858Z,36.30
2019-04-21T17:31:45.702Z,35.90
2019-04-21T17:34:19.516Z,36.20
2019-04-21T17:36:43.512Z,36.10
2019-04-21T17:39:13.056Z,36.40
2019-04-21T17:41:55.995Z,36.50
2019-04-21T17:44:11.159Z,36.80
2019-04-21T17:46:46.493Z,36.00
2019-04-21T17:49:10.740Z,36.40
2019-04-21T17:52:01.062Z,36.10
2019-04-21T17:54:37.640Z,36.40
2019-04-21T17:57:24.582Z,36.10
2019-04-21T18:00:08.191Z,36.40
2019-04-21T18:02:28.251Z,36.70
2019-04-21T18:05:00.806Z,36.50
2019-04-21T18:07:27.343Z,36.20
2019-04-21T18:10:04.995Z,36.20
2019-04-21T18:12:30.379Z,36.30
2019-04-21T18:15:29.040Z,36.60
2019-04-21T18:17:38.564Z,36.90
2019-04-21T18:20:07.851Z,37.10
2019-04-21T18:22:55.404Z,37.10
2019-04-21T18:25:37.586Z,37.60
2019-04-21T18:27:56.417Z,37.10
2019-04-21T18:30:44.592Z,36.90
2019-04-21T18:33:21.257Z,36.60
2019-04-21T18:36:02.943Z,36.50
2019-04-21T18:39:12.163Z,36.30
2019-04-21T18:41:27.899Z,36.60
2019-04-21T18:47:09.052Z,36.10
2019-04-21T18:49:29.172Z,35.90
2019-04-21T18:52:09.937Z,35.00
2019-04-21T18:54:51.553Z,35.00
2019-04-21T18:57:12.021Z,35.00
2019-04-21T18:59:37.298Z,34.60
2019-04-21T19:02:06.371Z,34.70
2019-04-21T19:04:33.887Z,34.40
2019-04-21T19:07:17.978Z,34.30
2019-04-21T19:10:09.942Z,33.90
2019-04-21T19:12:23.740Z,33.70
2019-04-21T19:14:57.983Z,33.70
2019-04-21T19:20:32.238Z,33.90
2019-04-21T19:22:41.683Z,33.40
2019-04-21T19:25:16.955Z,33.60
2019-04-21T19:27:43.703Z,33.80
2019-04-21T19:30:23.470Z,33.40
2019-04-21T19:32:39.076Z,33.00
2019-04-21T19:35:01.530Z,33.60
2019-04-21T19:37:30.062Z,34.10
2019-04-21T19:40:09.641Z,34.00
2019-04-21T19:42:37.915Z,33.60
2019-04-21T19:45:14.911Z,34.70
2019-04-21T19:47:51.066Z,33.60
2019-04-21T19:50:21.393Z,35.50
2019-04-21T19:52:40.999Z,34.50
2019-04-21T19:54:58.654Z,35.10
2019-04-21T19:57:27.266Z,35.60
2019-04-21T20:00:00.396Z,35.20
2019-04-21T20:02:26.868Z,34.80
2019-04-21T20:05:02.153Z,35.40
2019-04-21T20:07:45.532Z,33.70
2019-04-21T20:10:20.856Z,33.70
2019-04-21T20:12:47.198Z,34.10
2019-04-21T20:15:46.677Z,34.30
2019-04-21T20:18:08.696Z,34.50
2019-04-21T20:20:27.281Z,34.60
2019-04-21T20:22:56.073Z,34.30
2019-04-21T20:25:45.712Z,34.20
2019-04-21T20:28:45.811Z,33.50
2019-04-21T20:31:18.908Z,33.60
2019-04-21T20:33:53.846Z,34.20
2019-04-21T20:36:50.550Z,33.50
2019-04-21T20:38:42.189Z,33.30
2019-04-21T20:41:19.644Z,33.70
2019-04-21T20:43:57.780Z,33.90
2019-04-21T20:46:23.787Z,33.50
2019-04-21T20:48:46.494Z,32.00
2019-04-21T20:51:24.002Z,32.60
2019-04-21T20:53:46.598Z,32.50
2019-04-21T20:56:13.281Z,33.10
2019-04-21T20:58:51.847Z,32.40
2019-04-21T21:01:31.289Z,32.60
2019-04-21T21:03:47.839Z,31.40
2019-04-21T21:06:19.054Z,31.50
2019-04-21T21:08:49.820Z,31.20
2019-04-21T21:11:22.274Z,31.50
2019-04-21T21:13:49.063Z,31.70
2019-04-21T21:16:53.685Z,32.40
2019-04-21T21:19:34.832Z,32.40
2019-04-21T21:21:46.058Z,32.80
2019-04-21T21:24:15.441Z,33.50
2019-04-21T21:26:48.622Z,33.50
2019-04-21T21:29:18.309Z,34.80
2019-04-21T21:31:49.066Z,34.50
2019-04-21T21:34:22.870Z,35.10
2019-04-21T21:36:51.080Z,35.30
2019-04-21T21:39:15.841Z,35.50
2019-04-21T21:41:35.904Z,33.70
2019-04-21T21:44:04.936Z,33.10
2019-04-21T21:46:45.641Z,32.40
2019-04-21T21:49:07.457Z,32.90
2019-04-21T21:51:39.302Z,32.00
2019-04-21T21:53:58.886Z,31.90
2019-04-21T21:56:27.121Z,32.00
2019-04-21T21:58:55.655Z,31.50
2019-04-21T22:01:31.824Z,31.30
2019-04-21T22:04:04.923Z,31.40
2019-04-21T22:06:36.281Z,30.90
2019-04-21T22:08:56.598Z,30.70
2019-04-21T22:11:26.293Z,31.00
2019-04-21T22:14:00.420Z,30.80
2019-04-21T22:16:38.952Z,30.70
2019-04-21T22:19:21.931Z,31.50
2019-04-21T22:21:41.599Z,31.40
2019-04-21T22:24:02.816Z,31.50
2019-04-21T22:26:23.456Z,31.20
2019-04-21T22:28:51.822Z,30.70
2019-04-21T22:31:25.284Z,30.00
2019-04-21T22:33:54.730Z,30.00
2019-04-21T22:36:33.055Z,29.60
2019-04-21T22:39:10.326Z,29.50
2019-04-21T22:41:30.147Z,29.30
2019-04-21T22:43:51.644Z,29.30
2019-04-21T22:46:20.135Z,29.70
2019-04-21T22:48:53.111Z,29.10
2019-04-21T22:51:23.987Z,28.40
2019-04-21T22:53:50.781Z,28.90
2019-04-21T22:56:25.638Z,29.70
2019-04-21T22:58:48.282Z,29.30
2019-04-21T23:01:26.777Z,29.20
2019-04-21T23:03:54.705Z,29.20
2019-04-21T23:06:23.360Z,29.50
2019-04-21T23:08:48.087Z,29.00
2019-04-21T23:11:18.002Z,29.70
2019-04-21T23:13:55.319Z,30.10
2019-04-21T23:16:21.507Z,30.40
2019-04-21T23:19:07.496Z,30.60
2019-04-21T23:21:30.411Z,30.20
2019-04-21T23:24:07.390Z,30.70
2019-04-21T23:26:30.961Z,31.60
2019-04-21T23:29:07.584Z,31.90
2019-04-21T23:31:37.153Z,31.90
2019-04-21T23:33:46.640Z,32.30
2019-04-21T23:36:19.308Z,32.00
2019-04-21T23:38:47.913Z,31.50
2019-04-21T23:41:15.301Z,31.80
2019-04-21T23:43:44.862Z,31.60
2019-04-21T23:46:20.264Z,31.70
2019-04-21T23:49:01.823Z,31.00
2019-04-21T23:51:25.486Z,31.20
2019-04-21T23:53:43.683Z,31.00
2019-04-21T23:56:13.434Z,30.60
2019-04-21T23:58:45.821Z,31.80
